createdAt,value
2018-04-21T00:00:47.779Z,0
2018-04-21T00:01:56.978Z,0
2018-04-21T00:03:06.716Z,0
2018-04-21T00:04:16.721Z,0
2018-04-21T00:05:26.723Z,0
2018-04-21T00:06:36.821Z,0
2018-04-21T00:07:46.826Z,0
2018-04-21T00:08:56.830Z,0
2018-04-21T00:10:06.033Z,0
2018-04-21T00:11:15.772Z,0
2018-04-21T00:12:25.776Z,0
2018-04-21T00:13:35.511Z,0
2018-04-21T00:14:45.263Z,0
2018-04-21T00:15:55.263Z,0
2018-04-21T00:17:04.468Z,0
2018-04-21T00:18:14.304Z,0
2018-04-21T00:19:24.312Z,0
2018-04-21T00:20:34.320Z,0
2018-04-21T00:21:44.077Z,0
2018-04-21T00:22:54.093Z,0
2018-04-21T00:24:03.603Z,0
2018-04-21T00:25:13.080Z,0
2018-04-21T00:26:23.078Z,0
2018-04-21T00:27:33.091Z,0
2018-04-21T00:28:43.094Z,0
2018-04-21T00:29:53.101Z,0
2018-04-21T00:31:02.845Z,0
2018-04-21T00:32:12.575Z,0
2018-04-21T00:33:22.574Z,0
2018-04-21T00:34:32.314Z,0
2018-04-21T00:35:42.329Z,0
2018-04-21T00:36:52.346Z,0
2018-04-21T00:38:02.080Z,0
2018-04-21T00:39:11.815Z,0
2018-04-21T00:40:21.819Z,0
2018-04-21T00:41:31.560Z,0
2018-04-21T00:42:41.292Z,0
2018-04-21T00:43:51.057Z,0
2018-04-21T00:45:00.791Z,0
2018-04-21T00:46:10.262Z,0
2018-04-21T00:47:19.732Z,0
2018-04-21T00:48:29.461Z,0
2018-04-21T00:49:39.479Z,0
2018-04-21T00:50:49.493Z,0
2018-04-21T00:51:59.229Z,0
2018-04-21T00:53:08.431Z,0
2018-04-21T00:54:18.445Z,0
2018-04-21T00:55:28.449Z,0
2018-04-21T00:56:38.188Z,0
2018-04-21T00:57:48.196Z,0
2018-04-21T00:58:57.984Z,0
2018-04-21T01:00:07.459Z,0
2018-04-21T01:01:17.457Z,0
2018-04-21T01:02:26.925Z,0
2018-04-21T01:03:36.661Z,0
2018-04-21T01:04:46.663Z,0
2018-04-21T01:05:56.664Z,0
2018-04-21T01:07:06.662Z,0
2018-04-21T01:08:16.664Z,0
2018-04-21T01:09:26.665Z,0
2018-04-21T01:10:36.402Z,0
2018-04-21T01:11:46.403Z,0
2018-04-21T01:12:55.873Z,0
2018-04-21T01:14:05.875Z,0
2018-04-21T01:15:15.879Z,0
2018-04-21T01:16:25.896Z,0
2018-04-21T01:17:35.902Z,0
2018-04-21T01:18:45.642Z,0
2018-04-21T01:19:55.647Z,0
2018-04-21T01:21:05.649Z,0
2018-04-21T01:22:15.122Z,0
2018-04-21T01:23:24.589Z,0
2018-04-21T01:24:34.061Z,0
2018-04-21T01:25:43.525Z,0
2018-04-21T01:26:53.533Z,0
2018-04-21T01:28:03.549Z,0
2018-04-21T01:29:13.560Z,0
2018-04-21T01:30:23.027Z,0
2018-04-21T01:31:32.771Z,0
2018-04-21T01:32:42.503Z,0
2018-04-21T01:33:52.512Z,0
2018-04-21T01:35:01.979Z,0
2018-04-21T01:36:11.723Z,0
2018-04-21T01:37:21.474Z,0
2018-04-21T01:38:31.479Z,0
2018-04-21T01:39:41.214Z,0
2018-04-21T01:40:50.950Z,0
2018-04-21T01:42:00.950Z,0
2018-04-21T01:43:10.688Z,0
2018-04-21T01:44:20.688Z,0
2018-04-21T01:45:30.688Z,0
2018-04-21T01:46:40.694Z,0
2018-04-21T01:47:50.699Z,0
2018-04-21T01:49:00.692Z,0
2018-04-21T01:50:10.699Z,0
2018-04-21T01:51:20.703Z,0
2018-04-21T01:52:30.433Z,0
2018-04-21T01:53:40.431Z,0
2018-04-21T01:54:50.485Z,0
2018-04-21T01:56:00.507Z,0
2018-04-21T01:57:09.702Z,0
2018-04-21T01:58:19.439Z,0
2018-04-21T01:59:29.439Z,0
2018-04-21T02:00:39.172Z,0
2018-04-21T02:01:48.906Z,0
2018-04-21T02:02:58.415Z,0
2018-04-21T02:04:08.462Z,0
2018-04-21T02:05:18.198Z,0
2018-04-21T02:06:28.195Z,0
2018-04-21T02:07:38.197Z,0
2018-04-21T02:08:48.241Z,0
2018-04-21T02:09:58.247Z,0
2018-04-21T02:11:07.715Z,0
2018-04-21T02:12:17.451Z,0
2018-04-21T02:13:27.234Z,0
2018-04-21T02:14:36.435Z,0
2018-04-21T02:15:46.438Z,0
2018-04-21T02:16:56.178Z,0
2018-04-21T02:18:05.645Z,0
2018-04-21T02:19:15.652Z,0
2018-04-21T02:20:25.400Z,0
2018-04-21T02:21:35.145Z,0
2018-04-21T02:22:45.157Z,0
2018-04-21T02:23:54.895Z,0
2018-04-21T02:25:04.356Z,0
2018-04-21T02:26:13.827Z,0
2018-04-21T02:27:23.565Z,0
2018-04-21T02:28:33.305Z,0
2018-04-21T02:29:43.041Z,0
2018-04-21T02:30:52.801Z,0
2018-04-21T02:32:02.961Z,0
2018-04-21T02:33:12.708Z,0
2018-04-21T02:34:22.712Z,0
2018-04-21T02:35:32.725Z,0
2018-04-21T02:36:42.189Z,0
2018-04-21T02:37:52.200Z,0
2018-04-21T02:39:01.669Z,0
2018-04-21T02:40:11.420Z,0
2018-04-21T02:41:20.893Z,0
2018-04-21T02:42:30.640Z,0
2018-04-21T02:43:40.652Z,0
2018-04-21T02:44:50.658Z,0
2018-04-21T02:46:00.413Z,0
2018-04-21T02:47:10.144Z,0
2018-04-21T02:48:19.646Z,0
2018-04-21T02:49:29.395Z,0
2018-04-21T02:50:39.131Z,0
2018-04-21T02:51:49.157Z,0
2018-04-21T02:52:58.909Z,0
2018-04-21T02:54:08.379Z,0
2018-04-21T02:55:18.395Z,0
2018-04-21T02:56:28.141Z,4
2018-04-21T02:57:37.876Z,4
2018-04-21T02:58:47.892Z,0
2018-04-21T02:59:57.626Z,0
2018-04-21T03:04:03.074Z,4
2018-04-21T03:05:12.826Z,4
2018-04-21T03:06:22.821Z,4
2018-04-21T03:07:32.555Z,8
2018-04-21T03:08:42.296Z,8
2018-04-21T03:09:52.081Z,8
2018-04-21T03:11:02.078Z,12
2018-04-21T03:12:11.813Z,16
2018-04-21T03:13:21.294Z,12
2018-04-21T03:14:31.089Z,16
2018-04-21T03:15:40.821Z,20
2018-04-21T03:16:50.561Z,24
2018-04-21T03:18:00.039Z,28
2018-04-21T03:19:09.782Z,32
2018-04-21T03:20:19.311Z,32
2018-04-21T03:21:28.884Z,40
2018-04-21T03:22:38.621Z,44
2018-04-21T03:23:48.618Z,48
2018-04-21T03:24:58.621Z,56
2018-04-21T03:26:08.362Z,64
2018-04-21T03:27:18.358Z,68
2018-04-21T03:28:27.827Z,76
2018-04-21T03:29:37.298Z,88
2018-04-21T03:30:47.300Z,100
2018-04-21T03:31:57.041Z,108
2018-04-21T03:33:06.242Z,120
2018-04-21T03:34:15.976Z,136
2018-04-21T03:35:25.981Z,148
2018-04-21T03:36:35.714Z,164
2018-04-21T03:37:45.713Z,180
2018-04-21T03:38:55.715Z,200
2018-04-21T03:40:05.178Z,212
2018-04-21T03:41:15.199Z,228
2018-04-21T03:42:24.933Z,252
2018-04-21T03:43:34.140Z,272
2018-04-21T03:44:43.889Z,288
2018-04-21T03:45:53.898Z,312
2018-04-21T03:47:03.640Z,332
2018-04-21T03:48:13.653Z,356
2018-04-21T03:49:23.702Z,376
2018-04-21T03:50:33.714Z,396
2018-04-21T03:51:43.717Z,416
2018-04-21T03:52:53.716Z,444
2018-04-21T03:54:03.447Z,460
2018-04-21T03:55:13.442Z,480
2018-04-21T03:56:23.456Z,500
2018-04-21T03:57:33.453Z,520
2018-04-21T03:58:43.450Z,548
2018-04-21T03:59:53.449Z,576
2018-04-21T04:01:02.925Z,608
2018-04-21T04:02:12.929Z,636
2018-04-21T04:03:22.674Z,660
2018-04-21T04:04:32.138Z,696
2018-04-21T04:05:41.614Z,732
2018-04-21T04:06:51.578Z,768
2018-04-21T04:08:01.315Z,796
2018-04-21T04:09:11.057Z,820
2018-04-21T04:10:21.075Z,844
2018-04-21T04:11:30.538Z,868
2018-04-21T04:12:40.546Z,896
2018-04-21T04:13:50.293Z,928
2018-04-21T04:15:00.298Z,968
2018-04-21T04:16:10.315Z,1012
2018-04-21T04:17:20.051Z,1060
2018-04-21T04:18:29.787Z,1120
2018-04-21T04:19:39.561Z,1168
2018-04-21T04:20:49.028Z,1248
2018-04-21T04:21:58.757Z,1308
2018-04-21T04:23:08.502Z,1348
2018-04-21T04:24:18.539Z,1388
2018-04-21T04:25:28.279Z,1436
2018-04-21T04:26:38.015Z,1480
2018-04-21T04:27:47.755Z,1516
2018-04-21T04:28:57.225Z,1552
2018-04-21T04:30:07.232Z,1588
2018-04-21T04:31:17.230Z,1628
2018-04-21T04:32:26.962Z,1664
2018-04-21T04:33:36.703Z,1700
2018-04-21T04:34:45.908Z,1740
2018-04-21T04:35:55.650Z,1776
2018-04-21T04:37:05.383Z,1816
2018-04-21T04:38:15.126Z,1848
2018-04-21T04:39:25.130Z,1884
2018-04-21T04:40:35.137Z,1920
2018-04-21T04:41:44.612Z,1956
2018-04-21T04:42:54.660Z,1988
2018-04-21T04:44:04.407Z,2016
2018-04-21T04:45:14.140Z,2052
2018-04-21T04:46:23.871Z,2084
2018-04-21T04:47:33.596Z,2116
2018-04-21T04:48:43.328Z,2148
2018-04-21T04:49:53.329Z,2180
2018-04-21T04:51:03.058Z,2212
2018-04-21T04:52:13.068Z,2244
2018-04-21T04:53:23.126Z,2276
2018-04-21T04:54:32.914Z,2300
2018-04-21T04:55:42.654Z,2324
2018-04-21T04:56:52.661Z,2336
2018-04-21T04:58:02.127Z,2348
2018-04-21T04:59:12.147Z,2368
2018-04-21T05:00:21.878Z,2380
2018-04-21T05:01:31.346Z,2384
2018-04-21T05:02:41.083Z,2368
2018-04-21T05:03:51.084Z,2044
2018-04-21T05:05:00.820Z,2008
2018-04-21T05:06:10.287Z,2036
2018-04-21T05:07:19.498Z,2132
2018-04-21T05:08:29.239Z,2316
2018-04-21T05:09:39.023Z,2504
2018-04-21T05:10:48.762Z,2540
2018-04-21T05:11:58.502Z,2568
2018-04-21T05:13:08.512Z,2596
2018-04-21T05:14:18.517Z,2624
2018-04-21T05:15:28.521Z,2652
2018-04-21T05:16:38.536Z,2680
2018-04-21T05:17:48.541Z,2704
2018-04-21T05:18:58.543Z,2724
2018-04-21T05:20:08.286Z,2748
2018-04-21T05:21:18.307Z,2768
2018-04-21T05:22:28.327Z,2788
2018-04-21T05:23:38.055Z,2804
2018-04-21T05:24:48.051Z,2816
2018-04-21T05:25:57.782Z,2836
2018-04-21T05:27:07.790Z,2860
2018-04-21T05:28:17.259Z,2880
2018-04-21T05:29:26.994Z,2900
2018-04-21T05:30:36.994Z,2916
2018-04-21T05:31:46.997Z,2936
2018-04-21T05:32:56.748Z,2952
2018-04-21T05:34:06.213Z,2968
2018-04-21T05:35:16.223Z,2984
2018-04-21T05:36:26.226Z,2996
2018-04-21T05:37:36.235Z,3012
2018-04-21T05:38:46.234Z,3028
2018-04-21T05:39:56.231Z,3040
2018-04-21T05:41:05.429Z,3056
2018-04-21T05:42:15.193Z,3068
2018-04-21T05:43:25.194Z,3080
2018-04-21T05:44:34.980Z,3096
2018-04-21T05:45:44.799Z,3112
2018-04-21T05:46:54.362Z,3128
2018-04-21T05:48:04.372Z,3140
2018-04-21T05:49:14.372Z,3152
2018-04-21T05:50:24.115Z,3168
2018-04-21T05:51:34.178Z,3180
2018-04-21T05:52:43.909Z,3192
2018-04-21T05:53:53.376Z,3208
2018-04-21T05:55:03.381Z,3220
2018-04-21T05:56:12.849Z,3232
2018-04-21T05:57:22.315Z,3244
2018-04-21T05:58:32.319Z,3260
2018-04-21T05:59:41.517Z,3276
2018-04-21T06:00:50.983Z,3288
2018-04-21T06:02:00.715Z,3296
2018-04-21T06:03:10.451Z,3312
2018-04-21T06:04:20.459Z,3328
2018-04-21T06:05:30.465Z,3340
2018-04-21T06:06:40.204Z,3356
2018-04-21T06:07:50.201Z,3372
2018-04-21T06:09:00.211Z,3384
2018-04-21T06:10:10.221Z,3396
2018-04-21T06:11:19.689Z,3412
2018-04-21T06:12:29.697Z,3424
2018-04-21T06:13:39.436Z,3440
2018-04-21T06:14:48.905Z,3456
2018-04-21T06:15:59.017Z,3464
2018-04-21T06:17:08.753Z,3476
2018-04-21T06:18:18.211Z,3492
2018-04-21T06:19:27.953Z,3504
2018-04-21T06:20:37.961Z,3512
2018-04-21T06:21:47.695Z,3528
2018-04-21T06:22:57.437Z,3540
2018-04-21T06:24:07.447Z,3552
2018-04-21T06:25:17.184Z,3564
2018-04-21T06:26:26.938Z,3580
2018-04-21T06:27:36.681Z,3592
2018-04-21T06:28:46.692Z,3604
2018-04-21T06:29:56.713Z,3624
2018-04-21T06:31:06.186Z,3632
2018-04-21T06:32:15.925Z,3640
2018-04-21T06:33:25.974Z,3636
2018-04-21T06:34:35.450Z,3496
2018-04-21T06:35:45.184Z,3668
2018-04-21T06:36:55.192Z,3704
2018-04-21T06:38:05.199Z,3716
2018-04-21T06:39:14.944Z,3700
2018-04-21T06:40:24.682Z,3744
2018-04-21T06:41:34.151Z,3772
2018-04-21T06:42:43.893Z,3788
2018-04-21T06:43:53.900Z,3792
2018-04-21T06:45:03.371Z,3808
2018-04-21T06:46:12.838Z,3680
2018-04-21T06:47:22.841Z,3672
2018-04-21T06:48:32.586Z,3860
2018-04-21T06:49:42.320Z,3868
2018-04-21T06:50:52.056Z,3880
2018-04-21T06:52:01.801Z,3888
2018-04-21T06:53:11.651Z,3900
2018-04-21T06:54:21.397Z,3912
2018-04-21T06:55:31.142Z,3924
2018-04-21T06:56:41.236Z,3940
2018-04-21T06:57:51.250Z,3948
2018-04-21T06:59:00.989Z,3964
2018-04-21T07:00:10.727Z,3980
2018-04-21T07:01:20.470Z,3996
2018-04-21T07:02:30.471Z,4012
2018-04-21T07:03:40.227Z,4024
2018-04-21T07:04:50.238Z,4044
2018-04-21T07:06:00.072Z,4056
2018-04-21T07:07:10.163Z,4072
2018-04-21T07:08:19.947Z,4088
2018-04-21T07:09:28.882Z,4100
2018-04-21T07:10:38.623Z,4120
2018-04-21T07:11:48.357Z,4132
2018-04-21T07:12:58.097Z,4148
2018-04-21T07:14:07.839Z,4164
2018-04-21T07:15:17.577Z,4184
2018-04-21T07:16:27.597Z,4196
2018-04-21T07:17:37.604Z,4220
2018-04-21T07:18:47.601Z,4240
2018-04-21T07:19:57.079Z,4260
2018-04-21T07:21:06.831Z,4284
2018-04-21T07:22:16.875Z,4304
2018-04-21T07:23:26.876Z,4324
2018-04-21T07:24:36.879Z,4348
2018-04-21T07:25:46.879Z,4372
2018-04-21T07:26:56.616Z,4392
2018-04-21T07:28:05.817Z,4424
2018-04-21T07:29:15.823Z,4444
2018-04-21T07:30:25.828Z,4464
2018-04-21T07:31:35.831Z,4496
2018-04-21T07:32:45.567Z,4512
2018-04-21T07:33:55.302Z,4540
2018-04-21T07:35:05.321Z,4564
2018-04-21T07:36:15.070Z,4588
2018-04-21T07:37:25.074Z,4620
2018-04-21T07:38:34.819Z,4644
2018-04-21T07:39:44.558Z,4672
2018-04-21T07:40:54.564Z,4696
2018-04-21T07:42:04.567Z,4728
2018-04-21T07:43:14.298Z,4756
2018-04-21T07:44:24.038Z,4776
2018-04-21T07:45:33.511Z,4800
2018-04-21T07:46:42.978Z,4828
2018-04-21T07:47:52.534Z,4860
2018-04-21T07:49:02.120Z,4880
2018-04-21T07:50:12.417Z,4908
2018-04-21T07:51:22.437Z,4936
2018-04-21T07:52:32.179Z,4960
2018-04-21T07:53:42.194Z,4976
2018-04-21T07:54:51.932Z,5000
2018-04-21T07:56:01.965Z,5024
2018-04-21T07:57:11.757Z,5040
2018-04-21T07:58:21.764Z,5056
2018-04-21T07:59:31.780Z,5076
2018-04-21T08:00:41.517Z,5092
2018-04-21T08:01:50.718Z,5108
2018-04-21T08:03:00.723Z,5128
2018-04-21T08:04:10.463Z,5140
2018-04-21T08:05:20.467Z,5156
2018-04-21T08:06:30.468Z,5164
2018-04-21T08:07:39.947Z,5180
2018-04-21T08:08:49.685Z,5200
2018-04-21T08:09:59.690Z,5220
2018-04-21T08:11:09.438Z,5236
2018-04-21T08:12:19.592Z,5248
2018-04-21T08:13:29.601Z,5268
2018-04-21T08:14:39.342Z,5284
2018-04-21T08:15:49.340Z,5304
2018-04-21T08:16:58.814Z,5316
2018-04-21T08:18:08.292Z,5336
2018-04-21T08:19:18.028Z,5352
2018-04-21T08:20:27.764Z,5364
2018-04-21T08:21:37.245Z,5376
2018-04-21T08:22:46.993Z,5392
2018-04-21T08:23:57.162Z,5412
2018-04-21T08:25:06.788Z,5424
2018-04-21T08:26:16.806Z,5440
2018-04-21T08:27:26.811Z,5452
2018-04-21T08:28:36.284Z,5464
2018-04-21T08:29:46.024Z,5472
2018-04-21T08:30:56.026Z,5480
2018-04-21T08:32:05.761Z,5492
2018-04-21T08:33:15.232Z,5508
2018-04-21T08:34:24.703Z,5516
2018-04-21T08:35:34.184Z,5524
2018-04-21T08:36:43.918Z,5540
2018-04-21T08:37:53.763Z,5556
2018-04-21T08:39:03.520Z,5564
2018-04-21T08:40:13.262Z,5572
2018-04-21T08:41:23.372Z,5584
2018-04-21T08:42:33.113Z,5592
2018-04-21T08:43:42.746Z,5604
2018-04-21T08:44:52.541Z,5616
2018-04-21T08:46:02.548Z,5628
2018-04-21T08:47:12.292Z,5648
2018-04-21T08:48:21.767Z,5652
2018-04-21T08:49:31.795Z,5672
2018-04-21T08:50:41.805Z,5680
2018-04-21T08:51:51.812Z,5692
2018-04-21T08:53:01.552Z,5708
2018-04-21T08:54:11.026Z,5720
2018-04-21T08:55:20.775Z,5740
2018-04-21T08:56:30.645Z,5748
2018-04-21T08:57:40.360Z,5760
2018-04-21T08:58:50.141Z,5772
2018-04-21T08:59:59.897Z,5780
2018-04-21T09:01:09.640Z,5792
2018-04-21T09:02:19.656Z,5812
2018-04-21T09:03:29.132Z,5820
2018-04-21T09:04:39.144Z,5836
2018-04-21T09:05:48.348Z,5852
2018-04-21T09:06:58.357Z,5872
2018-04-21T09:08:08.102Z,5888
2018-04-21T09:09:17.839Z,5904
2018-04-21T09:10:27.631Z,5916
2018-04-21T09:11:37.235Z,5932
2018-04-21T09:12:46.976Z,5948
2018-04-21T09:13:56.988Z,5972
2018-04-21T09:15:06.466Z,5984
2018-04-21T09:16:15.726Z,6008
2018-04-21T09:17:25.734Z,6024
2018-04-21T09:18:35.479Z,6044
2018-04-21T09:19:45.215Z,6068
2018-04-21T09:20:54.950Z,6096
2018-04-21T09:22:05.091Z,6120
2018-04-21T09:23:14.838Z,6136
2018-04-21T09:24:24.581Z,6168
2018-04-21T09:25:34.323Z,6184
2018-04-21T09:26:44.334Z,6196
2018-04-21T09:27:54.382Z,6224
2018-04-21T09:29:04.175Z,6228
2018-04-21T09:30:13.919Z,6236
2018-04-21T09:31:23.925Z,6256
2018-04-21T09:32:33.669Z,6268
2018-04-21T09:33:43.629Z,6280
2018-04-21T09:34:53.492Z,6292
2018-04-21T09:36:03.244Z,6312
2018-04-21T09:37:13.002Z,6340
2018-04-21T09:38:23.011Z,6372
2018-04-21T09:39:32.751Z,6400
2018-04-21T09:40:42.763Z,6444
2018-04-21T09:41:52.500Z,6480
2018-04-21T09:43:02.243Z,6528
2018-04-21T09:44:12.260Z,6576
2018-04-21T09:45:22.264Z,6636
2018-04-21T09:46:31.999Z,6712
2018-04-21T09:47:41.739Z,6800
2018-04-21T09:48:51.479Z,6872
2018-04-21T09:50:01.215Z,6956
2018-04-21T09:51:10.690Z,7004
2018-04-21T09:52:20.691Z,6968
2018-04-21T09:53:30.707Z,6976
2018-04-21T09:54:40.446Z,6960
2018-04-21T09:55:50.189Z,6908
2018-04-21T09:56:59.934Z,6940
2018-04-21T09:58:09.944Z,6916
2018-04-21T09:59:19.783Z,6820
2018-04-21T10:00:29.266Z,6760
2018-04-21T10:01:39.268Z,6760
2018-04-21T10:02:49.333Z,6844
2018-04-21T10:03:59.338Z,6912
2018-04-21T10:05:08.822Z,6892
2018-04-21T10:06:18.030Z,6848
2018-04-21T10:07:28.037Z,6852
2018-04-21T10:08:36.985Z,6820
2018-04-21T10:09:46.727Z,6768
2018-04-21T10:10:56.732Z,6664
2018-04-21T10:12:05.671Z,6700
2018-04-21T10:13:15.900Z,6728
2018-04-21T10:14:26.108Z,6848
2018-04-21T10:15:35.847Z,6868
2018-04-21T10:16:45.327Z,6820
2018-04-21T10:17:55.332Z,6832
2018-04-21T10:19:05.335Z,6860
2018-04-21T10:20:15.348Z,6872
2018-04-21T10:21:25.359Z,6868
2018-04-21T10:22:35.365Z,6840
2018-04-21T10:23:44.896Z,6828
2018-04-21T10:24:54.755Z,6808
2018-04-21T10:26:04.361Z,6808
2018-04-21T10:27:13.294Z,6804
2018-04-21T10:28:23.040Z,6808
2018-04-21T10:29:32.782Z,6808
2018-04-21T10:30:42.251Z,6824
2018-04-21T10:31:51.459Z,6828
2018-04-21T10:33:01.198Z,6840
2018-04-21T10:34:10.937Z,6844
2018-04-21T10:35:20.411Z,6856
2018-04-21T10:36:30.429Z,6868
2018-04-21T10:37:40.489Z,6876
2018-04-21T10:38:50.351Z,6900
2018-04-21T10:39:59.961Z,6924
2018-04-21T10:41:09.166Z,6920
2018-04-21T10:42:19.185Z,6940
2018-04-21T10:43:28.930Z,6952
2018-04-21T10:44:38.140Z,6964
2018-04-21T10:45:47.701Z,6980
2018-04-21T10:46:57.755Z,6988
2018-04-21T10:48:07.768Z,7000
2018-04-21T10:49:17.775Z,7012
2018-04-21T10:50:27.788Z,7024
2018-04-21T10:51:37.795Z,7024
2018-04-21T10:52:47.271Z,7036
2018-04-21T10:53:57.018Z,7040
2018-04-21T10:55:06.270Z,7044
2018-04-21T10:56:15.740Z,7064
2018-04-21T10:57:25.482Z,7072
2018-04-21T10:58:35.488Z,7112
2018-04-21T10:59:45.019Z,7104
2018-04-21T11:00:54.760Z,7116
2018-04-21T11:02:04.230Z,7132
2018-04-21T11:03:14.274Z,7164
2018-04-21T11:04:24.284Z,7196
2018-04-21T11:05:34.029Z,7220
2018-04-21T11:06:43.776Z,7240
2018-04-21T11:07:53.781Z,7264
2018-04-21T11:09:03.256Z,7276
2018-04-21T11:10:12.460Z,7312
2018-04-21T11:11:22.205Z,7352
2018-04-21T11:12:32.221Z,7376
2018-04-21T11:13:42.323Z,7428
2018-04-21T11:14:52.362Z,7496
2018-04-21T11:16:02.373Z,7540
2018-04-21T11:17:11.848Z,7676
2018-04-21T11:18:21.640Z,8188
2018-04-21T11:19:31.651Z,9616
2018-04-21T11:20:41.669Z,38112
2018-04-21T11:21:51.678Z,72160
2018-04-21T11:23:01.691Z,76224
2018-04-21T11:24:11.263Z,77888
2018-04-21T11:25:20.996Z,79872
2018-04-21T11:26:30.735Z,75392
2018-04-21T11:27:40.479Z,76864
2018-04-21T11:28:50.525Z,78880
2018-04-21T11:30:00.549Z,76608
2018-04-21T11:31:10.291Z,76128
2018-04-21T11:32:20.298Z,79552
2018-04-21T11:33:30.040Z,78624
2018-04-21T11:34:40.063Z,77472
2018-04-21T11:35:49.808Z,76800
2018-04-21T11:36:59.831Z,76512
2018-04-21T11:38:09.310Z,77376
2018-04-21T11:39:19.326Z,77536
2018-04-21T11:40:29.079Z,75648
2018-04-21T11:41:38.568Z,78560
2018-04-21T11:42:48.324Z,76832
2018-04-21T11:43:58.079Z,76544
2018-04-21T11:45:07.831Z,76736
2018-04-21T11:46:17.310Z,80576
2018-04-21T11:47:27.332Z,79840
2018-04-21T11:48:37.089Z,77472
2018-04-21T11:49:47.106Z,76512
2018-04-21T11:50:57.148Z,78112
2018-04-21T11:52:06.099Z,76576
2018-04-21T11:53:15.958Z,75200
2018-04-21T11:54:25.719Z,78208
2018-04-21T11:55:35.745Z,78912
2018-04-21T11:56:45.769Z,78016
2018-04-21T11:57:55.784Z,77248
2018-04-21T11:59:05.550Z,79168
2018-04-21T12:00:15.035Z,74784
2018-04-21T12:01:25.051Z,79552
2018-04-21T12:02:34.904Z,79360
2018-04-21T12:03:44.662Z,77248
2018-04-21T12:04:54.689Z,75296
2018-04-21T12:06:04.443Z,71328
2018-04-21T12:07:14.460Z,63296
2018-04-21T12:08:24.482Z,67456
2018-04-21T12:09:34.498Z,66336
2018-04-21T12:10:44.528Z,62112
2018-04-21T12:11:54.286Z,63360
2018-04-21T12:13:04.037Z,64576
2018-04-21T12:14:13.527Z,66688
2018-04-21T12:15:23.277Z,67936
2018-04-21T12:16:32.764Z,68576
2018-04-21T12:17:42.783Z,69280
2018-04-21T12:18:52.270Z,69376
2018-04-21T12:20:02.284Z,70112
2018-04-21T12:21:11.811Z,62656
2018-04-21T12:22:21.569Z,63744
2018-04-21T12:23:31.163Z,64736
2018-04-21T12:24:40.922Z,62464
2018-04-21T12:25:50.937Z,59936
2018-04-21T12:27:00.687Z,60928
2018-04-21T12:28:10.706Z,60192
2018-04-21T12:29:20.728Z,61184
2018-04-21T12:30:30.756Z,62368
2018-04-21T12:31:39.701Z,58656
2018-04-21T12:32:49.448Z,61376
2018-04-21T12:33:59.463Z,63552
2018-04-21T12:35:08.953Z,60992
2018-04-21T12:36:18.707Z,63808
2018-04-21T12:37:28.733Z,60736
2018-04-21T12:38:38.755Z,58016
2018-04-21T12:39:48.238Z,58528
2018-04-21T12:40:58.267Z,68064
2018-04-21T12:42:08.017Z,75744
2018-04-21T12:43:18.037Z,73792
2018-04-21T12:44:28.072Z,71424
2018-04-21T12:45:37.827Z,65696
2018-04-21T12:46:47.581Z,66464
2018-04-21T12:47:57.339Z,70304
2018-04-21T12:49:07.377Z,66304
2018-04-21T12:50:17.132Z,71808
2018-04-21T12:51:26.652Z,71616
2018-04-21T12:52:36.136Z,65504
2018-04-21T12:53:46.158Z,61440
2018-04-21T12:54:56.187Z,63744
2018-04-21T12:56:05.678Z,66016
2018-04-21T12:57:15.160Z,71840
2018-04-21T12:58:24.911Z,75232
2018-04-21T12:59:34.712Z,65600
2018-04-21T13:00:44.208Z,64128
2018-04-21T13:01:54.227Z,63200
2018-04-21T13:03:04.495Z,66528
2018-04-21T13:04:14.506Z,63744
2018-04-21T13:05:24.256Z,58976
2018-04-21T13:06:34.285Z,58272
2018-04-21T13:07:44.039Z,58240
2018-04-21T13:08:53.788Z,63904
2018-04-21T13:10:03.540Z,64256
2018-04-21T13:11:13.568Z,65248
2018-04-21T13:12:23.593Z,61696
2018-04-21T13:13:33.086Z,57632
2018-04-21T13:14:42.842Z,61056
2018-04-21T13:15:52.863Z,57056
2018-04-21T13:17:02.622Z,56576
2018-04-21T13:18:12.116Z,58784
2018-04-21T13:19:22.143Z,60800
2018-04-21T13:20:31.902Z,62176
2018-04-21T13:21:41.922Z,64256
2018-04-21T13:22:51.678Z,61344
2018-04-21T13:24:01.696Z,63392
2018-04-21T13:25:11.712Z,66624
2018-04-21T13:26:21.468Z,63264
2018-04-21T13:27:31.504Z,64384
2018-04-21T13:28:41.263Z,64896
2018-04-21T13:29:51.303Z,60128
2018-04-21T13:31:01.330Z,63488
2018-04-21T13:32:11.084Z,60832
2018-04-21T13:33:20.841Z,60576
2018-04-21T13:34:30.594Z,61472
2018-04-21T13:35:40.350Z,65056
2018-04-21T13:36:49.840Z,68096
2018-04-21T13:37:59.644Z,67520
2018-04-21T13:39:09.133Z,67072
2018-04-21T13:40:18.899Z,71936
2018-04-21T13:41:28.917Z,66656
2018-04-21T13:42:38.667Z,71776
2018-04-21T13:43:48.519Z,71232
2018-04-21T13:44:58.557Z,72544
2018-04-21T13:46:08.318Z,72928
2018-04-21T13:47:18.336Z,66368
2018-04-21T13:48:28.161Z,61408
2018-04-21T13:49:38.224Z,58496
2018-04-21T13:50:47.979Z,58720
2018-04-21T13:51:57.211Z,58560
2018-04-21T13:53:07.234Z,63136
2018-04-21T13:54:16.724Z,62400
2018-04-21T13:55:26.751Z,57408
2018-04-21T13:56:36.504Z,55520
2018-04-21T13:57:46.255Z,50016
2018-04-21T13:58:56.274Z,52832
2018-04-21T14:00:06.030Z,53184
2018-04-21T14:01:15.520Z,54304
2018-04-21T14:02:25.002Z,57920
2018-04-21T14:03:34.752Z,58432
2018-04-21T14:04:44.235Z,55008
2018-04-21T14:05:53.982Z,54976
2018-04-21T14:07:04.099Z,57120
2018-04-21T14:08:13.316Z,59840
2018-04-21T14:09:22.802Z,61376
2018-04-21T14:10:32.816Z,62496
2018-04-21T14:11:42.842Z,64896
2018-04-21T14:12:52.864Z,68000
2018-04-21T14:14:02.613Z,73920
2018-04-21T14:15:12.370Z,74016
2018-04-21T14:16:22.398Z,73568
2018-04-21T14:17:32.427Z,75360
2018-04-21T14:18:42.452Z,78880
2018-04-21T14:19:51.944Z,81632
2018-04-21T14:21:01.966Z,77184
2018-04-21T14:22:11.714Z,75712
2018-04-21T14:23:21.331Z,78176
2018-04-21T14:24:31.214Z,81696
2018-04-21T14:25:40.697Z,84608
2018-04-21T14:26:50.723Z,87488
2018-04-21T14:28:00.205Z,94592
2018-04-21T14:29:10.265Z,94624
2018-04-21T14:30:20.290Z,87328
2018-04-21T14:31:30.316Z,83456
2018-04-21T14:32:40.339Z,84640
2018-04-21T14:33:50.365Z,81600
2018-04-21T14:35:00.520Z,79808
2018-04-21T14:36:10.273Z,79680
2018-04-21T14:37:19.763Z,76992
2018-04-21T14:38:29.529Z,74528
2018-04-21T14:39:39.596Z,77824
2018-04-21T14:40:49.868Z,84000
2018-04-21T14:41:59.951Z,79392
2018-04-21T14:43:09.714Z,76768
2018-04-21T14:44:19.469Z,75840
2018-04-21T14:45:29.224Z,76448
2018-04-21T14:46:38.984Z,79904
2018-04-21T14:47:49.007Z,79904
2018-04-21T14:48:59.032Z,78944
2018-04-21T14:50:08.519Z,78496
2018-04-21T14:51:18.011Z,76672
2018-04-21T14:52:27.767Z,77888
2018-04-21T14:53:37.524Z,73696
2018-04-21T14:54:47.274Z,72672
2018-04-21T14:55:57.039Z,71808
2018-04-21T14:57:06.908Z,72288
2018-04-21T14:58:16.996Z,76832
2018-04-21T14:59:26.812Z,75584
2018-04-21T15:00:36.034Z,74368
2018-04-21T15:01:46.067Z,74368
2018-04-21T15:02:56.089Z,75296
2018-04-21T15:04:05.849Z,75776
2018-04-21T15:05:15.867Z,74304
2018-04-21T15:06:25.889Z,70464
2018-04-21T15:07:35.654Z,71872
2018-04-21T15:08:45.707Z,68992
2018-04-21T15:09:55.471Z,68800
2018-04-21T15:11:05.577Z,71008
2018-04-21T15:12:15.331Z,68640
2018-04-21T15:13:25.354Z,70304
2018-04-21T15:14:35.115Z,72224
2018-04-21T15:15:44.874Z,70432
2018-04-21T15:16:54.366Z,69696
2018-04-21T15:18:04.386Z,70400
2018-04-21T15:19:13.601Z,70368
2018-04-21T15:20:23.160Z,69920
2018-04-21T15:21:32.911Z,68800
2018-04-21T15:22:42.677Z,67552
2018-04-21T15:23:52.744Z,66496
2018-04-21T15:25:02.769Z,65568
2018-04-21T15:26:12.257Z,64864
2018-04-21T15:27:21.476Z,65696
2018-04-21T15:28:31.496Z,66176
2018-04-21T15:29:41.535Z,67008
2018-04-21T15:30:51.288Z,65600
2018-04-21T15:32:01.308Z,62016
2018-04-21T15:33:10.916Z,47808
2018-04-21T15:34:20.703Z,45024
2018-04-21T15:35:30.458Z,36928
2018-04-21T15:36:40.473Z,30432
2018-04-21T15:37:50.488Z,27264
2018-04-21T15:39:00.512Z,17632
2018-04-21T15:40:10.007Z,15976
2018-04-21T15:41:20.027Z,17280
2018-04-21T15:42:30.048Z,20288
2018-04-21T15:43:39.264Z,20768
2018-04-21T15:44:49.018Z,19104